sensor_id;sensor_type;location;lat;lon;timestamp;P1;durP1;ratioP1;P2;durP2;ratioP2
71042;SDS011;58696;52.134;5.500;2022-09-12T00:00:11;5.00;;;4.50;;
71042;SDS011;58696;52.134;5.500;2022-09-12T00:02:41;4.85;;;4.38;;
71042;SDS011;58696;52.134;5.500;2022-09-12T00:05:08;8.38;;;4.25;;
71042;SDS011;58696;52.134;5.500;2022-09-12T00:07:34;3.00;;;2.80;;
71042;SDS011;58696;52.134;5.500;2022-09-12T00:10:01;2.90;;;2.50;;
71042;SDS011;58696;52.134;5.500;2022-09-12T00:12:28;2.50;;;2.33;;
71042;SDS011;58696;52.134;5.500;2022-09-12T00:14:55;3.78;;;3.30;;
71042;SDS011;58696;52.134;5.500;2022-09-12T00:17:22;3.58;;;2.70;;
71042;SDS011;58696;52.134;5.500;2022-09-12T00:19:48;3.38;;;3.08;;
71042;SDS011;58696;52.134;5.500;2022-09-12T00:22:20;3.50;;;3.20;;
71042;SDS011;58696;52.134;5.500;2022-09-12T00:24:47;8.02;;;3.15;;
71042;SDS011;58696;52.134;5.500;2022-09-12T00:27:13;6.70;;;2.75;;
71042;SDS011;58696;52.134;5.500;2022-09-12T00:29:40;3.78;;;3.00;;
71042;SDS011;58696;52.134;5.500;2022-09-12T00:32:07;4.35;;;3.45;;
71042;SDS011;58696;52.134;5.500;2022-09-12T00:34:34;3.95;;;3.60;;
71042;SDS011;58696;52.134;5.500;2022-09-12T00:37:03;5.18;;;4.53;;
71042;SDS011;58696;52.134;5.500;2022-09-12T00:39:29;5.32;;;4.80;;
71042;SDS011;58696;52.134;5.500;2022-09-12T00:41:56;10.23;;;5.28;;
71042;SDS011;58696;52.134;5.500;2022-09-12T00:46:56;11.95;;;6.22;;
71042;SDS011;58696;52.134;5.500;2022-09-12T00:54:38;12.80;;;9.77;;
71042;SDS011;58696;52.134;5.500;2022-09-12T00:57:10;13.07;;;9.98;;
71042;SDS011;58696;52.134;5.500;2022-09-12T00:59:43;14.23;;;9.27;;
71042;SDS011;58696;52.134;5.500;2022-09-12T01:02:14;18.25;;;11.13;;
71042;SDS011;58696;52.134;5.500;2022-09-12T01:04:41;18.05;;;10.85;;
71042;SDS011;58696;52.134;5.500;2022-09-12T01:09:37;11.10;;;8.25;;
71042;SDS011;58696;52.134;5.500;2022-09-12T01:12:10;26.33;;;12.57;;
71042;SDS011;58696;52.134;5.500;2022-09-12T01:14:39;13.93;;;12.38;;
71042;SDS011;58696;52.134;5.500;2022-09-12T01:17:08;21.13;;;12.23;;
71042;SDS011;58696;52.134;5.500;2022-09-12T01:30:48;17.95;;;13.48;;
71042;SDS011;58696;52.134;5.500;2022-09-12T01:38:49;14.80;;;11.35;;
71042;SDS011;58696;52.134;5.500;2022-09-12T01:47:45;16.25;;;12.30;;
71042;SDS011;58696;52.134;5.500;2022-09-12T01:50:42;14.18;;;11.75;;
71042;SDS011;58696;52.134;5.500;2022-09-12T01:53:14;13.85;;;12.18;;
71042;SDS011;58696;52.134;5.500;2022-09-12T01:55:48;15.80;;;12.98;;
71042;SDS011;58696;52.134;5.500;2022-09-12T01:58:21;15.57;;;12.27;;
71042;SDS011;58696;52.134;5.500;2022-09-12T02:00:56;14.73;;;11.93;;
71042;SDS011;58696;52.134;5.500;2022-09-12T02:03:49;20.80;;;11.93;;
71042;SDS011;58696;52.134;5.500;2022-09-12T02:06:21;16.02;;;11.82;;
71042;SDS011;58696;52.134;5.500;2022-09-12T02:08:56;15.35;;;11.10;;
71042;SDS011;58696;52.134;5.500;2022-09-12T02:11:30;16.17;;;11.80;;
71042;SDS011;58696;52.134;5.500;2022-09-12T02:14:01;14.27;;;12.05;;
71042;SDS011;58696;52.134;5.500;2022-09-12T02:16:42;19.77;;;10.95;;
71042;SDS011;58696;52.134;5.500;2022-09-12T02:19:16;13.68;;;10.52;;
71042;SDS011;58696;52.134;5.500;2022-09-12T02:21:51;12.63;;;9.77;;
71042;SDS011;58696;52.134;5.500;2022-09-12T02:24:39;12.43;;;9.15;;
71042;SDS011;58696;52.134;5.500;2022-09-12T02:29:54;12.13;;;9.75;;
71042;SDS011;58696;52.134;5.500;2022-09-12T02:32:27;12.48;;;9.43;;
71042;SDS011;58696;52.134;5.500;2022-09-12T02:40:16;12.75;;;10.25;;
71042;SDS011;58696;52.134;5.500;2022-09-12T02:42:43;13.75;;;10.27;;
71042;SDS011;58696;52.134;5.500;2022-09-12T02:45:10;16.38;;;10.25;;
71042;SDS011;58696;52.134;5.500;2022-09-12T02:47:43;9.60;;;8.60;;
71042;SDS011;58696;52.134;5.500;2022-09-12T02:50:16;13.93;;;9.43;;
71042;SDS011;58696;52.134;5.500;2022-09-12T02:52:43;10.70;;;8.88;;
71042;SDS011;58696;52.134;5.500;2022-09-12T02:55:13;10.38;;;9.05;;
71042;SDS011;58696;52.134;5.500;2022-09-12T02:57:43;9.95;;;8.40;;
71042;SDS011;58696;52.134;5.500;2022-09-12T03:00:10;10.13;;;7.43;;
71042;SDS011;58696;52.134;5.500;2022-09-12T03:07:39;11.55;;;7.75;;
71042;SDS011;58696;52.134;5.500;2022-09-12T03:18:26;13.73;;;8.75;;
71042;SDS011;58696;52.134;5.500;2022-09-12T03:26:31;7.88;;;6.63;;
71042;SDS011;58696;52.134;5.500;2022-09-12T03:29:04;10.20;;;7.65;;
71042;SDS011;58696;52.134;5.500;2022-09-12T03:31:33;8.85;;;7.30;;
71042;SDS011;58696;52.134;5.500;2022-09-12T03:34:00;13.00;;;9.00;;
71042;SDS011;58696;52.134;5.500;2022-09-12T03:36:27;8.80;;;7.90;;
71042;SDS011;58696;52.134;5.500;2022-09-12T03:38:55;17.63;;;9.52;;
71042;SDS011;58696;52.134;5.500;2022-09-12T03:41:22;13.93;;;9.73;;
71042;SDS011;58696;52.134;5.500;2022-09-12T03:43:49;17.15;;;9.88;;
71042;SDS011;58696;52.134;5.500;2022-09-12T03:46:15;15.40;;;10.95;;
71042;SDS011;58696;52.134;5.500;2022-09-12T03:48:42;10.80;;;9.43;;
71042;SDS011;58696;52.134;5.500;2022-09-12T03:51:09;11.93;;;10.38;;
71042;SDS011;58696;52.134;5.500;2022-09-12T03:53:36;14.45;;;10.25;;
71042;SDS011;58696;52.134;5.500;2022-09-12T03:56:06;13.80;;;10.77;;
71042;SDS011;58696;52.134;5.500;2022-09-12T03:58:44;12.75;;;9.35;;
71042;SDS011;58696;52.134;5.500;2022-09-12T04:01:12;11.88;;;9.25;;
71042;SDS011;58696;52.134;5.500;2022-09-12T04:03:47;17.52;;;8.85;;
71042;SDS011;58696;52.134;5.500;2022-09-12T04:06:17;13.50;;;8.90;;
71042;SDS011;58696;52.134;5.500;2022-09-12T04:08:49;12.27;;;8.95;;
71042;SDS011;58696;52.134;5.500;2022-09-12T04:11:17;11.90;;;9.43;;
71042;SDS011;58696;52.134;5.500;2022-09-12T04:13:47;13.50;;;8.98;;
71042;SDS011;58696;52.134;5.500;2022-09-12T04:16:15;12.27;;;9.20;;
71042;SDS011;58696;52.134;5.500;2022-09-12T04:18:43;9.55;;;8.57;;
71042;SDS011;58696;52.134;5.500;2022-09-12T04:21:15;10.43;;;9.07;;
71042;SDS011;58696;52.134;5.500;2022-09-12T04:23:44;8.80;;;7.90;;
71042;SDS011;58696;52.134;5.500;2022-09-12T04:26:11;15.15;;;11.05;;
71042;SDS011;58696;52.134;5.500;2022-09-12T04:31:10;15.73;;;10.43;;
71042;SDS011;58696;52.134;5.500;2022-09-12T04:33:40;12.65;;;9.10;;
71042;SDS011;58696;52.134;5.500;2022-09-12T04:36:11;15.85;;;9.88;;
71042;SDS011;58696;52.134;5.500;2022-09-12T04:38:42;13.20;;;10.80;;
71042;SDS011;58696;52.134;5.500;2022-09-12T04:41:14;14.90;;;11.70;;
71042;SDS011;58696;52.134;5.500;2022-09-12T04:43:43;18.35;;;11.65;;
71042;SDS011;58696;52.134;5.500;2022-09-12T04:46:15;15.50;;;11.73;;
71042;SDS011;58696;52.134;5.500;2022-09-12T04:48:45;17.08;;;11.77;;
71042;SDS011;58696;52.134;5.500;2022-09-12T04:51:13;15.63;;;12.05;;
71042;SDS011;58696;52.134;5.500;2022-09-12T04:53:50;16.48;;;11.63;;
71042;SDS011;58696;52.134;5.500;2022-09-12T04:56:20;16.05;;;12.27;;
71042;SDS011;58696;52.134;5.500;2022-09-12T04:58:48;15.45;;;11.20;;
71042;SDS011;58696;52.134;5.500;2022-09-12T05:01:19;20.17;;;12.60;;
71042;SDS011;58696;52.134;5.500;2022-09-12T05:03:48;19.20;;;11.38;;
71042;SDS011;58696;52.134;5.500;2022-09-12T05:06:17;19.25;;;12.55;;
71042;SDS011;58696;52.134;5.500;2022-09-12T05:08:49;17.13;;;12.48;;
71042;SDS011;58696;52.134;5.500;2022-09-12T05:11:19;18.65;;;12.65;;
71042;SDS011;58696;52.134;5.500;2022-09-12T05:13:50;18.95;;;13.07;;
71042;SDS011;58696;52.134;5.500;2022-09-12T05:16:19;20.30;;;13.07;;
71042;SDS011;58696;52.134;5.500;2022-09-12T05:18:46;18.50;;;13.75;;
71042;SDS011;58696;52.134;5.500;2022-09-12T05:21:14;21.42;;;13.70;;
71042;SDS011;58696;52.134;5.500;2022-09-12T05:23:44;24.48;;;14.80;;
71042;SDS011;58696;52.134;5.500;2022-09-12T05:26:13;21.95;;;14.90;;
71042;SDS011;58696;52.134;5.500;2022-09-12T05:28:42;22.35;;;15.57;;
71042;SDS011;58696;52.134;5.500;2022-09-12T05:31:12;20.13;;;14.93;;
71042;SDS011;58696;52.134;5.500;2022-09-12T05:33:42;23.77;;;14.63;;
71042;SDS011;58696;52.134;5.500;2022-09-12T05:36:17;25.83;;;13.85;;
71042;SDS011;58696;52.134;5.500;2022-09-12T05:38:45;22.52;;;13.98;;
71042;SDS011;58696;52.134;5.500;2022-09-12T05:41:14;26.20;;;14.57;;
71042;SDS011;58696;52.134;5.500;2022-09-12T05:43:51;19.83;;;13.70;;
71042;SDS011;58696;52.134;5.500;2022-09-12T05:46:25;20.05;;;13.98;;
71042;SDS011;58696;52.134;5.500;2022-09-12T05:48:55;23.42;;;14.77;;
71042;SDS011;58696;52.134;5.500;2022-09-12T05:51:24;17.80;;;13.65;;
71042;SDS011;58696;52.134;5.500;2022-09-12T05:53:54;26.98;;;15.55;;
71042;SDS011;58696;52.134;5.500;2022-09-12T05:56:23;31.13;;;15.27;;
71042;SDS011;58696;52.134;5.500;2022-09-12T05:58:53;24.42;;;14.45;;
71042;SDS011;58696;52.134;5.500;2022-09-12T06:01:25;33.85;;;15.50;;
71042;SDS011;58696;52.134;5.500;2022-09-12T06:03:55;24.52;;;16.30;;
71042;SDS011;58696;52.134;5.500;2022-09-12T06:06:26;22.40;;;15.32;;
71042;SDS011;58696;52.134;5.500;2022-09-12T06:08:58;25.40;;;16.25;;
71042;SDS011;58696;52.134;5.500;2022-09-12T06:11:27;27.20;;;15.45;;
71042;SDS011;58696;52.134;5.500;2022-09-12T06:13:56;26.20;;;16.45;;
71042;SDS011;58696;52.134;5.500;2022-09-12T06:21:24;31.90;;;16.42;;
71042;SDS011;58696;52.134;5.500;2022-09-12T06:23:52;31.45;;;16.90;;
71042;SDS011;58696;52.134;5.500;2022-09-12T06:26:24;27.25;;;17.35;;
71042;SDS011;58696;52.134;5.500;2022-09-12T06:28:51;42.63;;;18.83;;
71042;SDS011;58696;52.134;5.500;2022-09-12T06:31:21;28.60;;;18.38;;
71042;SDS011;58696;52.134;5.500;2022-09-12T06:33:51;33.85;;;19.17;;
71042;SDS011;58696;52.134;5.500;2022-09-12T06:36:23;34.38;;;19.10;;
71042;SDS011;58696;52.134;5.500;2022-09-12T06:38:58;37.15;;;18.90;;
71042;SDS011;58696;52.134;5.500;2022-09-12T06:41:29;36.42;;;19.50;;
71042;SDS011;58696;52.134;5.500;2022-09-12T06:46:26;31.17;;;18.80;;
71042;SDS011;58696;52.134;5.500;2022-09-12T06:48:57;66.78;;;19.80;;
71042;SDS011;58696;52.134;5.500;2022-09-12T06:51:26;40.67;;;20.23;;
71042;SDS011;58696;52.134;5.500;2022-09-12T06:53:55;36.78;;;20.80;;
71042;SDS011;58696;52.134;5.500;2022-09-12T06:56:23;40.78;;;22.13;;
71042;SDS011;58696;52.134;5.500;2022-09-12T06:58:52;36.17;;;22.30;;
71042;SDS011;58696;52.134;5.500;2022-09-12T07:01:30;41.17;;;21.75;;
71042;SDS011;58696;52.134;5.500;2022-09-12T07:03:58;42.60;;;24.13;;
71042;SDS011;58696;52.134;5.500;2022-09-12T07:06:28;45.30;;;23.90;;
71042;SDS011;58696;52.134;5.500;2022-09-12T07:09:01;44.88;;;24.15;;
71042;SDS011;58696;52.134;5.500;2022-09-12T07:11:30;41.13;;;25.15;;
71042;SDS011;58696;52.134;5.500;2022-09-12T07:13:59;39.80;;;24.38;;
71042;SDS011;58696;52.134;5.500;2022-09-12T07:16:27;50.85;;;25.08;;
71042;SDS011;58696;52.134;5.500;2022-09-12T07:18:56;43.85;;;24.33;;
71042;SDS011;58696;52.134;5.500;2022-09-12T07:21:24;47.92;;;26.08;;
71042;SDS011;58696;52.134;5.500;2022-09-12T07:23:51;47.13;;;24.60;;
71042;SDS011;58696;52.134;5.500;2022-09-12T07:26:25;44.05;;;26.45;;
71042;SDS011;58696;52.134;5.500;2022-09-12T07:28:56;41.88;;;23.85;;
71042;SDS011;58696;52.134;5.500;2022-09-12T07:31:44;42.33;;;25.05;;
71042;SDS011;58696;52.134;5.500;2022-09-12T07:34:11;43.15;;;23.23;;
71042;SDS011;58696;52.134;5.500;2022-09-12T07:36:39;39.42;;;25.17;;
71042;SDS011;58696;52.134;5.500;2022-09-12T07:39:06;45.80;;;26.10;;
71042;SDS011;58696;52.134;5.500;2022-09-12T07:41:33;43.00;;;25.35;;
71042;SDS011;58696;52.134;5.500;2022-09-12T07:44:00;40.92;;;25.38;;
71042;SDS011;58696;52.134;5.500;2022-09-12T07:46:29;46.65;;;24.98;;
71042;SDS011;58696;52.134;5.500;2022-09-12T07:48:57;37.03;;;23.70;;
71042;SDS011;58696;52.134;5.500;2022-09-12T07:51:25;37.85;;;23.65;;
71042;SDS011;58696;52.134;5.500;2022-09-12T07:53:53;35.40;;;22.63;;
71042;SDS011;58696;52.134;5.500;2022-09-12T07:56:22;34.30;;;21.85;;
71042;SDS011;58696;52.134;5.500;2022-09-12T07:58:54;31.70;;;21.30;;
71042;SDS011;58696;52.134;5.500;2022-09-12T08:01:22;32.00;;;20.35;;
71042;SDS011;58696;52.134;5.500;2022-09-12T08:03:52;27.50;;;19.98;;
71042;SDS011;58696;52.134;5.500;2022-09-12T08:06:20;30.05;;;21.63;;
71042;SDS011;58696;52.134;5.500;2022-09-12T08:08:54;28.35;;;19.58;;
71042;SDS011;58696;52.134;5.500;2022-09-12T08:11:22;27.42;;;19.70;;
71042;SDS011;58696;52.134;5.500;2022-09-12T08:13:52;27.27;;;20.45;;
71042;SDS011;58696;52.134;5.500;2022-09-12T08:16:25;33.25;;;19.95;;
71042;SDS011;58696;52.134;5.500;2022-09-12T08:18:57;28.98;;;18.38;;
71042;SDS011;58696;52.134;5.500;2022-09-12T08:21:26;28.58;;;20.33;;
71042;SDS011;58696;52.134;5.500;2022-09-12T08:24:01;29.17;;;19.95;;
71042;SDS011;58696;52.134;5.500;2022-09-12T08:26:32;27.33;;;19.52;;
71042;SDS011;58696;52.134;5.500;2022-09-12T08:29:00;27.05;;;18.88;;
71042;SDS011;58696;52.134;5.500;2022-09-12T08:33:55;23.80;;;17.80;;
71042;SDS011;58696;52.134;5.500;2022-09-12T08:36:26;23.95;;;17.85;;
71042;SDS011;58696;52.134;5.500;2022-09-12T08:38:58;24.58;;;18.58;;
71042;SDS011;58696;52.134;5.500;2022-09-12T08:49:56;26.38;;;16.73;;
71042;SDS011;58696;52.134;5.500;2022-09-12T08:52:45;23.23;;;16.42;;
71042;SDS011;58696;52.134;5.500;2022-09-12T08:57:52;19.52;;;15.70;;
71042;SDS011;58696;52.134;5.500;2022-09-12T09:00:20;19.02;;;15.57;;
71042;SDS011;58696;52.134;5.500;2022-09-12T09:08:16;27.33;;;15.55;;
71042;SDS011;58696;52.134;5.500;2022-09-12T09:13:29;19.15;;;15.82;;
71042;SDS011;58696;52.134;5.500;2022-09-12T09:16:33;20.02;;;14.55;;
71042;SDS011;58696;52.134;5.500;2022-09-12T09:19:10;19.25;;;14.75;;
71042;SDS011;58696;52.134;5.500;2022-09-12T09:21:48;17.40;;;14.15;;
71042;SDS011;58696;52.134;5.500;2022-09-12T09:24:23;20.10;;;14.95;;
71042;SDS011;58696;52.134;5.500;2022-09-12T09:29:40;19.42;;;15.45;;
71042;SDS011;58696;52.134;5.500;2022-09-12T09:32:13;19.48;;;15.88;;
71042;SDS011;58696;52.134;5.500;2022-09-12T09:34:49;27.77;;;16.58;;
71042;SDS011;58696;52.134;5.500;2022-09-12T09:43:12;15.55;;;12.90;;
71042;SDS011;58696;52.134;5.500;2022-09-12T09:45:40;18.33;;;12.88;;
71042;SDS011;58696;52.134;5.500;2022-09-12T09:48:15;22.05;;;13.10;;
71042;SDS011;58696;52.134;5.500;2022-09-12T09:50:44;17.08;;;12.90;;
71042;SDS011;58696;52.134;5.500;2022-09-12T09:53:47;20.60;;;12.90;;
71042;SDS011;58696;52.134;5.500;2022-09-12T09:56:27;16.20;;;11.48;;
71042;SDS011;58696;52.134;5.500;2022-09-12T09:59:08;15.25;;;12.50;;
71042;SDS011;58696;52.134;5.500;2022-09-12T10:01:47;16.90;;;12.55;;
71042;SDS011;58696;52.134;5.500;2022-09-12T10:04:17;14.63;;;11.55;;
71042;SDS011;58696;52.134;5.500;2022-09-12T10:06:47;21.35;;;11.65;;
71042;SDS011;58696;52.134;5.500;2022-09-12T10:09:21;15.45;;;11.48;;
71042;SDS011;58696;52.134;5.500;2022-09-12T10:12:19;16.73;;;12.57;;
71042;SDS011;58696;52.134;5.500;2022-09-12T10:14:57;17.20;;;12.27;;
71042;SDS011;58696;52.134;5.500;2022-09-12T10:17:28;17.92;;;12.30;;
71042;SDS011;58696;52.134;5.500;2022-09-12T10:20:00;19.35;;;11.63;;
71042;SDS011;58696;52.134;5.500;2022-09-12T10:22:47;14.93;;;11.32;;
71042;SDS011;58696;52.134;5.500;2022-09-12T10:25:14;13.98;;;10.70;;
71042;SDS011;58696;52.134;5.500;2022-09-12T10:27:50;15.85;;;10.18;;
71042;SDS011;58696;52.134;5.500;2022-09-12T10:30:19;15.27;;;9.57;;
71042;SDS011;58696;52.134;5.500;2022-09-12T10:32:50;14.45;;;10.18;;
71042;SDS011;58696;52.134;5.500;2022-09-12T10:35:20;14.88;;;10.07;;
71042;SDS011;58696;52.134;5.500;2022-09-12T10:38:12;10.27;;;8.20;;
71042;SDS011;58696;52.134;5.500;2022-09-12T10:43:33;13.65;;;8.98;;
71042;SDS011;58696;52.134;5.500;2022-09-12T10:48:42;11.32;;;9.95;;
71042;SDS011;58696;52.134;5.500;2022-09-12T10:51:28;9.27;;;8.32;;
71042;SDS011;58696;52.134;5.500;2022-09-12T10:53:58;10.18;;;8.35;;
71042;SDS011;58696;52.134;5.500;2022-09-12T10:56:43;11.13;;;8.75;;
71042;SDS011;58696;52.134;5.500;2022-09-12T11:02:18;9.93;;;8.93;;
71042;SDS011;58696;52.134;5.500;2022-09-12T11:07:45;12.50;;;8.77;;
71042;SDS011;58696;52.134;5.500;2022-09-12T11:10:30;9.68;;;7.70;;
71042;SDS011;58696;52.134;5.500;2022-09-12T11:16:26;11.52;;;7.07;;
71042;SDS011;58696;52.134;5.500;2022-09-12T11:24:17;9.70;;;6.00;;
71042;SDS011;58696;52.134;5.500;2022-09-12T11:27:20;8.82;;;6.07;;
71042;SDS011;58696;52.134;5.500;2022-09-12T11:30:15;6.20;;;5.60;;
71042;SDS011;58696;52.134;5.500;2022-09-12T11:35:37;7.35;;;5.35;;
71042;SDS011;58696;52.134;5.500;2022-09-12T11:41:25;6.57;;;5.72;;
71042;SDS011;58696;52.134;5.500;2022-09-12T11:46:44;6.18;;;4.72;;
71042;SDS011;58696;52.134;5.500;2022-09-12T11:49:28;4.47;;;4.07;;
71042;SDS011;58696;52.134;5.500;2022-09-12T11:52:06;5.07;;;3.42;;
71042;SDS011;58696;52.134;5.500;2022-09-12T11:59:53;6.30;;;3.35;;
71042;SDS011;58696;52.134;5.500;2022-09-12T12:02:26;3.40;;;3.10;;
71042;SDS011;58696;52.134;5.500;2022-09-12T12:07:38;9.05;;;2.85;;
71042;SDS011;58696;52.134;5.500;2022-09-12T12:10:24;4.30;;;2.50;;
71042;SDS011;58696;52.134;5.500;2022-09-12T12:12:56;3.55;;;3.00;;
71042;SDS011;58696;52.134;5.500;2022-09-12T12:15:27;3.83;;;2.92;;
71042;SDS011;58696;52.134;5.500;2022-09-12T12:18:00;2.78;;;2.58;;
71042;SDS011;58696;52.134;5.500;2022-09-12T12:20:27;6.00;;;3.80;;
71042;SDS011;58696;52.134;5.500;2022-09-12T12:22:59;5.55;;;3.38;;
71042;SDS011;58696;52.134;5.500;2022-09-12T12:25:37;12.32;;;3.67;;
71042;SDS011;58696;52.134;5.500;2022-09-12T12:28:08;3.15;;;2.85;;
71042;SDS011;58696;52.134;5.500;2022-09-12T12:35:40;4.88;;;4.00;;
71042;SDS011;58696;52.134;5.500;2022-09-12T12:41:36;3.35;;;2.97;;
71042;SDS011;58696;52.134;5.500;2022-09-12T12:43:47;8.73;;;3.25;;
71042;SDS011;58696;52.134;5.500;2022-09-12T12:46:17;5.85;;;3.20;;
71042;SDS011;58696;52.134;5.500;2022-09-12T12:51:37;3.63;;;2.60;;
71042;SDS011;58696;52.134;5.500;2022-09-12T12:57:00;3.75;;;3.05;;
71042;SDS011;58696;52.134;5.500;2022-09-12T12:59:50;4.25;;;2.55;;
71042;SDS011;58696;52.134;5.500;2022-09-12T13:04:55;3.35;;;3.05;;
71042;SDS011;58696;52.134;5.500;2022-09-12T13:07:32;3.20;;;2.78;;
71042;SDS011;58696;52.134;5.500;2022-09-12T13:10:03;4.57;;;3.30;;
71042;SDS011;58696;52.134;5.500;2022-09-12T13:12:42;3.35;;;3.05;;
71042;SDS011;58696;52.134;5.500;2022-09-12T13:21:09;6.15;;;3.33;;
71042;SDS011;58696;52.134;5.500;2022-09-12T13:23:42;4.47;;;2.85;;
71042;SDS011;58696;52.134;5.500;2022-09-12T13:26:13;6.10;;;3.70;;
71042;SDS011;58696;52.134;5.500;2022-09-12T13:31:36;4.22;;;3.83;;
71042;SDS011;58696;52.134;5.500;2022-09-12T13:36:44;4.65;;;3.40;;
71042;SDS011;58696;52.134;5.500;2022-09-12T13:39:14;3.15;;;2.85;;
71042;SDS011;58696;52.134;5.500;2022-09-12T13:44:29;8.57;;;4.68;;
71042;SDS011;58696;52.134;5.500;2022-09-12T13:47:03;4.72;;;4.22;;
71042;SDS011;58696;52.134;5.500;2022-09-12T13:49:32;5.38;;;3.78;;
71042;SDS011;58696;52.134;5.500;2022-09-12T13:54:33;9.30;;;3.03;;
71042;SDS011;58696;52.134;5.500;2022-09-12T13:57:03;5.32;;;3.92;;
71042;SDS011;58696;52.134;5.500;2022-09-12T13:59:40;6.53;;;3.90;;
71042;SDS011;58696;52.134;5.500;2022-09-12T14:02:20;5.05;;;4.05;;
71042;SDS011;58696;52.134;5.500;2022-09-12T14:04:50;4.40;;;3.42;;
71042;SDS011;58696;52.134;5.500;2022-09-12T14:07:38;3.90;;;2.95;;
71042;SDS011;58696;52.134;5.500;2022-09-12T14:10:17;3.05;;;2.70;;
71042;SDS011;58696;52.134;5.500;2022-09-12T14:12:49;5.38;;;3.08;;
71042;SDS011;58696;52.134;5.500;2022-09-12T14:15:18;7.00;;;2.72;;
71042;SDS011;58696;52.134;5.500;2022-09-12T14:17:50;2.55;;;2.30;;
71042;SDS011;58696;52.134;5.500;2022-09-12T14:20:21;5.05;;;3.28;;
71042;SDS011;58696;52.134;5.500;2022-09-12T14:22:51;6.25;;;2.75;;
71042;SDS011;58696;52.134;5.500;2022-09-12T14:25:20;4.70;;;2.60;;
71042;SDS011;58696;52.134;5.500;2022-09-12T14:27:53;5.40;;;2.58;;
71042;SDS011;58696;52.134;5.500;2022-09-12T14:33:04;4.03;;;2.25;;
71042;SDS011;58696;52.134;5.500;2022-09-12T14:35:37;10.15;;;4.38;;
71042;SDS011;58696;52.134;5.500;2022-09-12T14:40:44;4.20;;;2.33;;
71042;SDS011;58696;52.134;5.500;2022-09-12T14:43:30;2.55;;;2.25;;
71042;SDS011;58696;52.134;5.500;2022-09-12T14:48:33;3.72;;;2.15;;
71042;SDS011;58696;52.134;5.500;2022-09-12T14:51:02;2.15;;;1.95;;
71042;SDS011;58696;52.134;5.500;2022-09-12T14:53:31;2.60;;;2.40;;
71042;SDS011;58696;52.134;5.500;2022-09-12T14:58:35;3.95;;;2.40;;
71042;SDS011;58696;52.134;5.500;2022-09-12T15:03:33;2.38;;;2.17;;
71042;SDS011;58696;52.134;5.500;2022-09-12T15:06:02;2.33;;;2.10;;
71042;SDS011;58696;52.134;5.500;2022-09-12T15:08:34;4.70;;;2.30;;
71042;SDS011;58696;52.134;5.500;2022-09-12T15:11:00;4.03;;;2.40;;
71042;SDS011;58696;52.134;5.500;2022-09-12T15:13:27;5.30;;;2.55;;
71042;SDS011;58696;52.134;5.500;2022-09-12T15:15:56;4.00;;;2.58;;
71042;SDS011;58696;52.134;5.500;2022-09-12T15:18:27;3.10;;;2.50;;
71042;SDS011;58696;52.134;5.500;2022-09-12T15:20:59;3.92;;;2.67;;
71042;SDS011;58696;52.134;5.500;2022-09-12T15:23:33;5.93;;;2.70;;
71042;SDS011;58696;52.134;5.500;2022-09-12T15:26:19;3.00;;;2.80;;
71042;SDS011;58696;52.134;5.500;2022-09-12T15:28:48;5.30;;;3.03;;
71042;SDS011;58696;52.134;5.500;2022-09-12T15:33:58;3.80;;;2.85;;
71042;SDS011;58696;52.134;5.500;2022-09-12T15:36:27;2.80;;;2.33;;
71042;SDS011;58696;52.134;5.500;2022-09-12T15:38:54;3.25;;;2.38;;
71042;SDS011;58696;52.134;5.500;2022-09-12T15:43:53;4.15;;;2.00;;
71042;SDS011;58696;52.134;5.500;2022-09-12T15:46:22;5.20;;;1.83;;
71042;SDS011;58696;52.134;5.500;2022-09-12T15:48:49;4.45;;;2.08;;
71042;SDS011;58696;52.134;5.500;2022-09-12T15:51:16;6.33;;;2.40;;
71042;SDS011;58696;52.134;5.500;2022-09-12T15:53:48;6.50;;;2.50;;
71042;SDS011;58696;52.134;5.500;2022-09-12T15:56:17;2.75;;;2.30;;
71042;SDS011;58696;52.134;5.500;2022-09-12T15:58:47;3.80;;;2.25;;
71042;SDS011;58696;52.134;5.500;2022-09-12T16:01:30;2.20;;;2.00;;
71042;SDS011;58696;52.134;5.500;2022-09-12T16:03:57;3.15;;;2.83;;
71042;SDS011;58696;52.134;5.500;2022-09-12T16:06:24;3.38;;;2.35;;
71042;SDS011;58696;52.134;5.500;2022-09-12T16:08:58;5.15;;;2.20;;
71042;SDS011;58696;52.134;5.500;2022-09-12T16:11:26;3.38;;;2.30;;
71042;SDS011;58696;52.134;5.500;2022-09-12T16:13:53;3.72;;;2.33;;
71042;SDS011;58696;52.134;5.500;2022-09-12T16:16:24;5.35;;;2.90;;
71042;SDS011;58696;52.134;5.500;2022-09-12T16:18:55;2.45;;;2.25;;
71042;SDS011;58696;52.134;5.500;2022-09-12T16:21:22;3.90;;;2.33;;
71042;SDS011;58696;52.134;5.500;2022-09-12T16:23:49;3.10;;;2.40;;
71042;SDS011;58696;52.134;5.500;2022-09-12T16:26:16;3.85;;;2.80;;
71042;SDS011;58696;52.134;5.500;2022-09-12T16:28:43;2.70;;;2.45;;
71042;SDS011;58696;52.134;5.500;2022-09-12T16:31:11;4.05;;;2.28;;
71042;SDS011;58696;52.134;5.500;2022-09-12T16:33:41;3.55;;;2.60;;
71042;SDS011;58696;52.134;5.500;2022-09-12T16:36:10;3.45;;;2.55;;
71042;SDS011;58696;52.134;5.500;2022-09-12T16:38:44;3.17;;;2.08;;
71042;SDS011;58696;52.134;5.500;2022-09-12T16:41:15;3.95;;;2.10;;
71042;SDS011;58696;52.134;5.500;2022-09-12T16:43:43;2.15;;;1.95;;
71042;SDS011;58696;52.134;5.500;2022-09-12T16:46:11;1.90;;;1.70;;
71042;SDS011;58696;52.134;5.500;2022-09-12T16:48:42;4.07;;;2.05;;
71042;SDS011;58696;52.134;5.500;2022-09-12T16:51:20;3.10;;;1.90;;
71042;SDS011;58696;52.134;5.500;2022-09-12T16:53:49;5.05;;;2.13;;
71042;SDS011;58696;52.134;5.500;2022-09-12T16:56:16;2.28;;;2.08;;
71042;SDS011;58696;52.134;5.500;2022-09-12T16:58:44;2.90;;;1.95;;
71042;SDS011;58696;52.134;5.500;2022-09-12T17:01:16;2.40;;;1.95;;
71042;SDS011;58696;52.134;5.500;2022-09-12T17:03:45;2.25;;;2.08;;
71042;SDS011;58696;52.134;5.500;2022-09-12T17:06:13;3.83;;;2.28;;
71042;SDS011;58696;52.134;5.500;2022-09-12T17:08:46;2.50;;;2.00;;
71042;SDS011;58696;52.134;5.500;2022-09-12T17:11:16;2.20;;;1.85;;
71042;SDS011;58696;52.134;5.500;2022-09-12T17:13:46;3.58;;;2.08;;
71042;SDS011;58696;52.134;5.500;2022-09-12T17:16:33;3.13;;;2.30;;
71042;SDS011;58696;52.134;5.500;2022-09-12T17:19:02;4.70;;;2.30;;
71042;SDS011;58696;52.134;5.500;2022-09-12T17:21:30;2.83;;;2.22;;
71042;SDS011;58696;52.134;5.500;2022-09-12T17:26:25;5.65;;;2.30;;
71042;SDS011;58696;52.134;5.500;2022-09-12T17:28:52;2.63;;;2.43;;
71042;SDS011;58696;52.134;5.500;2022-09-12T17:31:19;3.47;;;2.90;;
71042;SDS011;58696;52.134;5.500;2022-09-12T17:33:47;5.45;;;3.08;;
71042;SDS011;58696;52.134;5.500;2022-09-12T17:36:17;5.35;;;3.05;;
71042;SDS011;58696;52.134;5.500;2022-09-12T17:38:49;14.77;;;4.25;;
71042;SDS011;58696;52.134;5.500;2022-09-12T17:41:18;12.10;;;4.53;;
71042;SDS011;58696;52.134;5.500;2022-09-12T17:43:50;11.93;;;3.72;;
71042;SDS011;58696;52.134;5.500;2022-09-12T17:46:32;8.05;;;3.15;;
71042;SDS011;58696;52.134;5.500;2022-09-12T17:49:01;7.63;;;3.53;;
71042;SDS011;58696;52.134;5.500;2022-09-12T17:51:33;9.02;;;3.20;;
71042;SDS011;58696;52.134;5.500;2022-09-12T17:54:02;6.82;;;3.53;;
71042;SDS011;58696;52.134;5.500;2022-09-12T17:56:32;5.00;;;3.20;;
71042;SDS011;58696;52.134;5.500;2022-09-12T17:59:00;4.05;;;2.80;;
71042;SDS011;58696;52.134;5.500;2022-09-12T18:01:30;5.80;;;3.33;;
71042;SDS011;58696;52.134;5.500;2022-09-12T18:04:15;3.78;;;3.10;;
71042;SDS011;58696;52.134;5.500;2022-09-12T18:06:45;4.68;;;3.20;;
71042;SDS011;58696;52.134;5.500;2022-09-12T18:09:21;6.40;;;3.63;;